Detall de PIREP

Printer-friendly versionPDF version

[2012/11/21 07:16:00]
Flight IATA:CT3104
Pilot Number:011
Company ICAO:CAT
Aircraft Type:F28/A
PAX:85
Departing Airport: LIEA
Destination Airport: LFMP
Alternate Airport:LFBO
Online: VATSIM
Route:GINOX UM732 NISEK UT175 DIVKO UM731 FJR/N0330F190 G39 BRUSC A27 SIJAN
Flight Level:F300
No Slew and time accel
No pause
Crash detect
Detect pilot in Cockpit between each 30 and 45 minutes
07:16 Zero fuel Weight: 59157 Lbs, Fuel Weight: 11419 Lbs
07:16 VATSIM:LIEA 210620Z VRB01KT 0600 R20/0800VP1500D BCFG NSC 06/06 Q1018
07:16 VATSIM:LFMP 210630Z 31005KT 7000 SCT010 BKN250 11/10 Q1014 NOSIG
07:19 Parking Brakes off
07:29 Take-off
07:29 Take off Weight: 70007 Lbs
07:29 Wind: 314º @ 002 Knots Heading: 205º
07:29 POS N40º 37´ 48´´ E008º 17´ 22´´
07:29 Flaps:2 at 166 Knots
07:29 Gear Up: 168 Knots
07:30 Flaps:1 at 229 Knots
07:30 Flaps:0 at 235 Knots
07:44 Wind:325º@004 Knots Heading: 311º Ground Speed: 381 Knots Altitude 27247 ft
07:46 TOC
07:46 Fuel Weight: 8600 Lb
07:59 Wind:354º@058 Knots Heading: 316º Ground Speed: 402 Knots Altitude 30131 ft
08:14 Wind:020º@036 Knots Heading: 314º Ground Speed: 434 Knots Altitude 30114 ft
08:15 TOD
08:15 Fuel Weight: 6397 Lb
08:29 Wind:310º@010 Knots Heading: 183º Ground Speed: 280 Knots Altitude 5449 ft
08:32 Flaps:1 at 220 Knots
08:33 Flaps:2 at 201 Knots
08:34 Flaps:3 at 183 Knots
08:34 Gear Down: 180 Knots
08:34 Flaps:4 at 165 Knots
08:37 Flaps:5 at 151 Knots
08:39 TouchDown:Rate -119 ft/min Speed: 114 Knots
08:39 VATSIM:LFMP 210800Z 31005KT 290V360 6000 SCT010 OVC100 12/10 Q1016 NOSIG
08:39 Land
08:39 Wind:312º@005 Knots
08:39 Heading: 328º
08:39 Flight Duration: 01:10
08:39 Landing Weight: 64629 Lbs
08:39 POS N42º 44´ 49´´ E002º 52´ 02´´
08:43 Parking brakes on
08:43 Block toBlock Duration: 01:24
08:43 Final Fuel: 5284 Lbls
08:43 Spent Fuel: 6135 Lbls
08:43 Flight Length: 193 NM
08:43 TOD Land Length: 55 NM

Exportar CSV

Powered by Drupal - Modified by Danger4k